Time;durP1;ratioP1;P1;durP2;ratioP2;P2;SDS_P1;SDS_P2;PMS_P1;PMS_P2;Temp;Humidity;BMP_temperature;BMP_pressure;BME280_temperature;BME280_humidity;BME280_pressure;Samples;Min_cycle;Max_cycle;Signal;HPM_P1;HPM_P2
2022/10/21 00:00:17;;;;;;;89.88;43.80;;;12.30;99.90;;;;;;5010261;28;20483;-77
2022/10/21 00:02:45;;;;;;;91.00;44.53;;;12.30;99.90;;;;;;4994470;28;20125;-76
2022/10/21 00:05:12;;;;;;;79.53;40.72;;;12.30;99.90;;;;;;4993474;28;20085;-77
2022/10/21 00:07:39;;;;;;;87.05;42.92;;;12.30;99.90;;;;;;5013042;28;20495;-77
2022/10/21 00:10:06;;;;;;;85.28;43.28;;;12.40;99.90;;;;;;4994246;28;20046;-77
2022/10/21 00:12:33;;;;;;;80.40;40.72;;;12.40;99.90;;;;;;4993993;28;20042;-77
2022/10/21 00:15:06;;;;;;;88.65;45.63;;;12.40;99.90;;;;;;4992448;28;20050;-77
2022/10/21 00:17:37;;;;;;;76.82;38.40;;;12.40;99.90;;;;;;4998643;28;20037;-77
2022/10/21 00:20:07;;;;;;;85.78;42.47;;;12.30;99.90;;;;;;4989406;28;20125;-77
2022/10/21 00:22:34;;;;;;;85.22;43.78;;;12.40;99.90;;;;;;4992738;28;20069;-76
2022/10/21 00:25:03;;;;;;;87.88;44.38;;;12.40;99.90;;;;;;4990992;28;20050;-77
2022/10/21 00:27:30;;;;;;;86.88;44.72;;;12.40;99.90;;;;;;4984725;28;20049;-77
2022/10/21 00:29:57;;;;;;;88.47;43.38;;;12.40;99.90;;;;;;4989087;28;20046;-77
2022/10/21 00:32:23;;;;;;;88.28;42.85;;;12.50;99.90;;;;;;4993365;28;20037;-76
2022/10/21 00:34:50;;;;;;;87.97;45.08;;;12.50;99.90;;;;;;4973374;28;20045;-78
2022/10/21 00:37:17;;;;;;;86.95;44.35;;;12.50;99.90;;;;;;4991465;28;20053;-76
2022/10/21 00:39:44;;;;;;;82.43;44.90;;;12.50;99.90;;;;;;4995908;28;20042;-76
2022/10/21 00:42:16;;;;;;;87.57;44.60;;;12.60;99.90;;;;;;4991663;28;20523;-76
2022/10/21 00:45:00;;;;;;;87.35;42.55;;;12.60;99.90;;;;;;4996003;28;20113;-77
2022/10/21 00:47:26;;;;;;;89.30;44.22;;;12.50;99.90;;;;;;4994363;28;20042;-76
2022/10/21 00:50:00;;;;;;;83.22;43.45;;;12.50;99.90;;;;;;4995032;28;20045;-77
2022/10/21 00:52:28;;;;;;;78.97;44.35;;;12.50;99.90;;;;;;4977178;28;20650;-76
2022/10/21 00:54:56;;;;;;;86.63;44.70;;;12.50;99.90;;;;;;4996160;28;20050;-78
2022/10/21 00:57:25;;;;;;;82.30;44.88;;;12.50;99.90;;;;;;4974821;28;20034;-77
2022/10/21 00:59:56;;;;;;;93.95;48.47;;;12.50;99.90;;;;;;4980226;28;20073;-76
2022/10/21 01:02:23;;;;;;;86.22;45.15;;;12.50;99.90;;;;;;4999445;28;20045;-76
2022/10/21 01:04:57;;;;;;;83.93;43.92;;;12.50;99.90;;;;;;5012488;28;20045;-77
2022/10/21 01:07:24;;;;;;;73.57;38.42;;;12.50;99.90;;;;;;4974531;28;20042;-79
2022/10/21 01:09:51;;;;;;;90.10;44.90;;;12.50;99.90;;;;;;4992155;28;20098;-78
2022/10/21 01:12:27;;;;;;;76.95;40.40;;;12.50;99.90;;;;;;4987461;28;21507;-76
2022/10/21 01:15:35;;;;;;;83.97;42.30;;;12.50;99.90;;;;;;5009250;28;20047;-77
2022/10/21 01:18:30;;;;;;;86.10;41.85;;;12.50;99.90;;;;;;4992205;28;20050;-77
2022/10/21 01:21:08;;;;;;;82.75;41.28;;;12.60;99.90;;;;;;4981005;28;20046;-76
2022/10/21 01:23:54;;;;;;;83.40;40.72;;;12.60;99.90;;;;;;4985275;28;20052;-76
2022/10/21 01:26:30;;;;;;;;;;;12.60;99.90;;;;;;5008567;28;20065;-76
2022/10/21 01:29:24;;;;;;;82.53;41.03;;;12.60;99.90;;;;;;4986584;28;19979;-76
2022/10/21 01:32:00;;;;;;;90.18;40.80;;;12.60;99.90;;;;;;4995100;28;20065;-77
2022/10/21 01:34:55;;;;;;;72.85;38.78;;;12.60;99.90;;;;;;5012266;28;20044;-77
2022/10/21 01:37:28;;;;;;;86.90;43.28;;;12.60;99.90;;;;;;4976518;28;20136;-75
2022/10/21 01:40:11;;;;;;;85.20;42.60;;;12.60;99.90;;;;;;4994478;28;20120;-75
2022/10/21 01:42:51;;;;;;;80.78;39.95;;;12.60;99.90;;;;;;5006321;28;20036;-76
2022/10/21 01:45:21;;;;;;;83.95;42.90;;;12.60;99.90;;;;;;4991883;28;20050;-76
2022/10/21 01:48:02;;;;;;;81.65;41.70;;;12.70;99.90;;;;;;4988007;28;20050;-76
2022/10/21 01:50:33;;;;;;;78.03;39.10;;;12.70;99.90;;;;;;4992554;28;20069;-77
2022/10/21 01:53:06;;;;;;;79.72;40.05;;;12.80;99.90;;;;;;4991660;28;20131;-76
2022/10/21 01:55:34;;;;;;;82.32;42.25;;;12.80;99.90;;;;;;4992256;28;20073;-76
2022/10/21 01:58:06;;;;;;;81.40;42.15;;;12.80;99.90;;;;;;4991104;28;20041;-77
2022/10/21 02:00:35;;;;;;;78.72;40.40;;;12.80;99.90;;;;;;4985884;28;20136;-76
2022/10/21 02:03:06;;;;;;;80.95;40.35;;;12.90;99.90;;;;;;5004796;28;20046;-77
2022/10/21 02:05:34;;;;;;;86.07;40.92;;;12.80;99.90;;;;;;4992898;28;20041;-76
2022/10/21 02:08:01;;;;;;;82.30;41.78;;;12.80;99.90;;;;;;4989738;28;20054;-76
2022/10/21 02:10:34;;;;;;;77.88;39.78;;;12.80;99.90;;;;;;4994107;28;20054;-76
2022/10/21 02:13:03;;;;;;;84.28;43.55;;;12.90;99.90;;;;;;4989566;28;20062;-76
2022/10/21 02:15:32;;;;;;;72.90;39.15;;;12.80;99.90;;;;;;4986601;28;20041;-77
2022/10/21 02:18:15;;;;;;;83.00;41.10;;;12.80;99.90;;;;;;4990550;28;20048;-75
2022/10/21 02:20:44;;;;;;;72.97;39.15;;;12.80;99.90;;;;;;4989270;28;20038;-77
2022/10/21 02:23:17;;;;;;;74.47;39.38;;;12.80;99.90;;;;;;4989137;28;20046;-78
2022/10/21 02:25:48;;;;;;;82.40;40.20;;;12.80;99.90;;;;;;4989503;28;20096;-78
2022/10/21 02:28:15;;;;;;;76.30;40.00;;;12.80;99.90;;;;;;4986018;28;20068;-76
2022/10/21 02:31:00;;;;;;;83.80;40.60;;;12.80;99.90;;;;;;4987939;28;20124;-77
2022/10/21 02:33:41;;;;;;;86.97;40.95;;;12.70;99.90;;;;;;5009474;28;20069;-76
2022/10/21 02:36:13;;;;;;;79.75;39.20;;;12.70;99.90;;;;;;4990658;28;20037;-77
2022/10/21 02:38:54;;;;;;;76.68;38.90;;;12.70;99.90;;;;;;5010423;28;20068;-75
2022/10/21 02:41:23;;;;;;;79.63;38.92;;;12.70;99.90;;;;;;4988488;28;20046;-76
2022/10/21 02:43:52;;;;;;;81.80;37.97;;;12.70;99.90;;;;;;5013680;28;20048;-77
2022/10/21 02:46:20;;;;;;;85.88;40.72;;;12.70;99.90;;;;;;4988046;28;20046;-76
2022/10/21 02:48:47;;;;;;;87.90;39.70;;;12.70;99.90;;;;;;4994989;28;20069;-78
2022/10/21 02:51:15;;;;;;;81.07;40.00;;;12.70;99.90;;;;;;4990406;28;20038;-76
2022/10/21 02:53:41;;;;;;;78.40;39.00;;;12.70;99.90;;;;;;4992405;28;20069;-77
2022/10/21 02:56:08;;;;;;;88.13;42.60;;;12.70;99.90;;;;;;4986928;28;20042;-76
2022/10/21 02:58:35;;;;;;;93.65;43.10;;;12.60;99.90;;;;;;4991929;28;20041;-79
2022/10/21 03:01:02;;;;;;;80.72;39.55;;;12.70;99.90;;;;;;4984874;28;20042;-78
2022/10/21 03:03:29;;;;;;;99.78;44.97;;;12.60;99.90;;;;;;4989791;28;20053;-78
2022/10/21 03:05:56;;;;;;;106.43;43.03;;;12.60;99.90;;;;;;4997376;28;20041;-78
2022/10/21 03:08:23;;;;;;;73.70;38.25;;;12.70;99.90;;;;;;4990441;28;20084;-77
2022/10/21 03:10:50;;;;;;;84.00;40.97;;;12.70;99.90;;;;;;4978829;28;20042;-78
2022/10/21 03:13:20;;;;;;;82.72;40.30;;;12.80;99.90;;;;;;5007606;28;20033;-77
2022/10/21 03:15:48;;;;;;;77.55;38.90;;;12.80;99.90;;;;;;4990237;28;20045;-78
2022/10/21 03:18:15;;;;;;;69.50;34.92;;;12.80;99.90;;;;;;4992363;28;20042;-77
2022/10/21 03:20:42;;;;;;;69.53;35.85;;;12.80;99.90;;;;;;4992401;28;20030;-78
2022/10/21 03:23:09;;;;;;;77.00;39.67;;;12.80;99.90;;;;;;4987115;28;20047;-78
2022/10/21 03:25:36;;;;;;;74.45;36.08;;;12.70;99.90;;;;;;4998496;28;20481;-77
2022/10/21 03:28:02;;;;;;;72.07;35.45;;;12.80;99.90;;;;;;4987853;28;20038;-77
2022/10/21 03:30:29;;;;;;;53.90;31.83;;;12.80;99.90;;;;;;4990470;28;20045;-78
2022/10/21 03:32:56;;;;;;;64.85;35.42;;;12.80;99.90;;;;;;5008219;28;20521;-77
2022/10/21 03:35:22;;;;;;;63.15;33.88;;;12.90;99.90;;;;;;4983990;28;20074;-80
2022/10/21 03:37:49;;;;;;;64.60;34.15;;;12.90;99.90;;;;;;4990747;28;20034;-78
2022/10/21 03:40:16;;;;;;;60.28;33.53;;;12.80;99.90;;;;;;4989641;28;20487;-78
2022/10/21 03:42:42;;;;;;;62.28;32.15;;;12.90;99.90;;;;;;4987860;28;20068;-78
2022/10/21 03:45:10;;;;;;;55.67;30.85;;;12.90;99.90;;;;;;4982652;28;20053;-77
2022/10/21 03:47:36;;;;;;;57.88;32.80;;;12.90;99.90;;;;;;4992393;28;20061;-76
2022/10/21 03:50:05;;;;;;;58.05;32.13;;;12.90;99.90;;;;;;4993210;28;20392;-78
2022/10/21 03:52:38;;;;;;;53.67;28.42;;;12.90;99.90;;;;;;5001226;28;20069;-78
2022/10/21 03:55:06;;;;;;;50.13;27.25;;;12.90;99.90;;;;;;4993006;28;20049;-79
2022/10/21 03:57:33;;;;;;;60.45;31.85;;;12.90;99.90;;;;;;5000192;28;20050;-77
2022/10/21 03:59:59;;;;;;;60.42;30.30;;;12.80;99.90;;;;;;4989668;28;20060;-78
2022/10/21 04:02:26;;;;;;;55.05;28.88;;;12.90;99.90;;;;;;4988199;28;20070;-78
2022/10/21 04:04:53;;;;;;;52.47;30.65;;;12.90;99.90;;;;;;4989027;28;20058;-77
2022/10/21 04:07:19;;;;;;;56.22;29.52;;;12.90;99.90;;;;;;4990123;28;20049;-78
2022/10/21 04:09:46;;;;;;;50.47;28.05;;;12.90;99.90;;;;;;4996161;28;20080;-78
2022/10/21 04:12:13;;;;;;;55.42;29.13;;;12.90;99.90;;;;;;4991177;28;20042;-77
2022/10/21 04:14:40;;;;;;;54.13;31.77;;;12.90;99.90;;;;;;4994435;28;20511;-77
2022/10/21 04:17:06;;;;;;;47.58;28.63;;;12.90;99.90;;;;;;4971850;28;20042;-78
2022/10/21 04:19:34;;;;;;;46.08;27.77;;;12.90;99.90;;;;;;4990030;28;20052;-77
2022/10/21 04:22:00;;;;;;;51.35;30.15;;;12.90;99.90;;;;;;4990699;28;20049;-78
2022/10/21 04:24:27;;;;;;;55.65;29.30;;;13.00;99.90;;;;;;4986463;28;20058;-79
2022/10/21 04:26:54;;;;;;;54.38;29.83;;;13.00;99.90;;;;;;4991981;28;20042;-78
2022/10/21 04:29:20;;;;;;;52.03;27.77;;;13.00;99.90;;;;;;4981484;28;20642;-78
2022/10/21 04:31:47;;;;;;;47.42;27.98;;;13.00;99.90;;;;;;4991956;28;20044;-77
2022/10/21 04:34:14;;;;;;;50.53;29.35;;;13.00;99.90;;;;;;4992101;28;20685;-78
2022/10/21 04:36:41;;;;;;;60.90;31.20;;;13.00;99.90;;;;;;4991477;28;20045;-77
2022/10/21 04:39:07;;;;;;;54.45;29.13;;;13.00;99.90;;;;;;4984953;28;20038;-78
2022/10/21 04:41:35;;;;;;;61.65;31.48;;;13.00;99.90;;;;;;5009946;28;20499;-76
2022/10/21 04:44:02;;;;;;;56.28;32.00;;;13.00;99.90;;;;;;4986722;28;20047;-77
2022/10/21 04:46:29;;;;;;;54.80;28.95;;;13.00;99.90;;;;;;4991692;28;20041;-78
2022/10/21 04:48:56;;;;;;;52.53;28.08;;;13.00;99.90;;;;;;4999708;28;20056;-77
2022/10/21 04:51:23;;;;;;;52.58;30.92;;;13.00;99.90;;;;;;5003786;28;20043;-78
2022/10/21 04:53:50;;;;;;;58.88;31.98;;;12.90;99.90;;;;;;4988024;28;20056;-78
2022/10/21 04:56:16;;;;;;;51.42;28.73;;;12.90;99.90;;;;;;4979026;28;20045;-78
2022/10/21 04:58:43;;;;;;;53.97;30.60;;;12.90;99.90;;;;;;4990496;28;20046;-78
2022/10/21 05:01:10;;;;;;;60.08;31.38;;;12.90;99.90;;;;;;4989148;28;20046;-78
2022/10/21 05:03:37;;;;;;;51.40;29.45;;;12.80;99.90;;;;;;4991089;28;20046;-77
2022/10/21 05:06:04;;;;;;;57.80;30.50;;;12.90;99.90;;;;;;4985432;28;20516;-76
2022/10/21 05:08:30;;;;;;;54.45;29.65;;;12.80;99.90;;;;;;4997014;28;20042;-77
2022/10/21 05:10:59;;;;;;;48.78;25.05;;;12.80;99.90;;;;;;4979759;28;20408;-76
2022/10/21 05:13:27;;;;;;;48.58;25.85;;;12.80;99.90;;;;;;4988299;28;20057;-78
2022/10/21 05:16:02;;;;;;;52.20;28.13;;;12.80;99.90;;;;;;4995836;28;20045;-78
2022/10/21 05:18:29;;;;;;;53.20;25.95;;;12.80;99.90;;;;;;4990082;28;20081;-78
2022/10/21 05:20:56;;;;;;;43.75;25.15;;;12.80;99.90;;;;;;4990117;28;20515;-78
2022/10/21 05:23:24;;;;;;;53.20;27.33;;;12.80;99.90;;;;;;4995136;28;20034;-77
2022/10/21 05:25:51;;;;;;;47.13;26.05;;;12.80;99.90;;;;;;4988376;28;20041;-78
2022/10/21 05:28:19;;;;;;;58.67;28.25;;;12.80;99.90;;;;;;4989756;28;20569;-78
2022/10/21 05:30:46;;;;;;;45.88;23.70;;;12.70;99.90;;;;;;4992772;28;20399;-78
2022/10/21 05:33:13;;;;;;;46.10;25.40;;;12.70;99.90;;;;;;4985654;28;20518;-77
2022/10/21 05:35:40;;;;;;;44.42;24.33;;;12.80;99.90;;;;;;4995641;28;20269;-77
2022/10/21 05:38:07;;;;;;;42.08;22.98;;;12.80;99.90;;;;;;4993609;28;20292;-78
2022/10/21 05:40:33;;;;;;;42.95;23.70;;;12.80;99.90;;;;;;5004974;28;20046;-78
2022/10/21 05:43:00;;;;;;;46.00;24.23;;;12.80;99.90;;;;;;4985664;28;20045;-78
2022/10/21 05:45:27;;;;;;;41.75;24.30;;;12.80;99.90;;;;;;4985393;28;20050;-77
2022/10/21 05:47:54;;;;;;;40.55;23.52;;;12.80;99.90;;;;;;4982150;28;20054;-77
2022/10/21 05:50:20;;;;;;;45.85;26.63;;;12.80;99.90;;;;;;4989890;28;20056;-78
2022/10/21 05:52:47;;;;;;;41.67;23.08;;;12.80;99.90;;;;;;4995444;28;20412;-78
2022/10/21 05:55:14;;;;;;;43.58;24.33;;;12.80;99.90;;;;;;4977585;28;20795;-77
2022/10/21 05:57:40;;;;;;;37.78;21.60;;;12.80;99.90;;;;;;4988655;28;20383;-78
2022/10/21 06:00:10;;;;;;;37.40;22.70;;;12.80;99.90;;;;;;4988595;28;20125;-79
2022/10/21 06:02:37;;;;;;;45.25;22.88;;;12.90;99.90;;;;;;4985893;28;20042;-77
2022/10/21 06:05:05;;;;;;;44.05;24.08;;;12.80;99.90;;;;;;5003994;28;20128;-77
2022/10/21 06:07:31;;;;;;;43.25;23.55;;;12.80;99.90;;;;;;4983151;28;20073;-78
2022/10/21 06:09:58;;;;;;;50.15;28.10;;;12.90;99.90;;;;;;4988766;28;20046;-78
2022/10/21 06:12:25;;;;;;;54.78;28.38;;;12.90;99.90;;;;;;4994265;28;20049;-78
2022/10/21 06:14:51;;;;;;;47.78;24.85;;;12.90;99.90;;;;;;4995463;28;20050;-77
2022/10/21 06:17:19;;;;;;;39.83;23.10;;;12.90;99.90;;;;;;4987459;28;20515;-78
2022/10/21 06:19:45;;;;;;;40.97;22.15;;;12.90;99.90;;;;;;4980510;28;20054;-77
2022/10/21 06:22:16;;;;;;;44.67;22.25;;;12.90;99.90;;;;;;4990288;28;20046;-77
2022/10/21 06:24:43;;;;;;;42.20;25.27;;;12.90;99.90;;;;;;4988443;28;20061;-78
2022/10/21 06:27:10;;;;;;;41.28;23.45;;;12.80;99.90;;;;;;4965862;28;20056;-78
2022/10/21 06:29:37;;;;;;;41.33;23.73;;;12.80;99.90;;;;;;4993403;28;20038;-77
2022/10/21 06:32:04;;;;;;;34.20;20.50;;;12.80;99.90;;;;;;4986624;28;20492;-78
2022/10/21 06:34:31;;;;;;;29.45;18.65;;;12.80;99.90;;;;;;4985314;28;20038;-77
2022/10/21 06:36:57;;;;;;;30.60;18.40;;;12.90;99.90;;;;;;4994926;28;20072;-77
2022/10/21 06:39:24;;;;;;;27.92;18.42;;;12.80;99.90;;;;;;4989243;28;20044;-78
2022/10/21 06:41:51;;;;;;;35.45;17.70;;;12.90;99.90;;;;;;4988103;28;20471;-78
2022/10/21 06:44:37;;;;;;;27.27;15.68;;;12.90;99.90;;;;;;5003795;28;20046;-78
2022/10/21 06:47:04;;;;;;;29.42;17.17;;;13.00;99.90;;;;;;4985086;28;20050;-78
2022/10/21 06:49:31;;;;;;;25.10;16.05;;;13.00;99.90;;;;;;4981174;28;20091;-77
2022/10/21 06:51:57;;;;;;;29.50;16.85;;;13.00;99.90;;;;;;4987805;28;20046;-78
2022/10/21 06:54:24;;;;;;;29.23;16.30;;;13.10;99.90;;;;;;4989961;28;20043;-79
2022/10/21 06:56:51;;;;;;;33.05;17.35;;;13.20;99.90;;;;;;5013600;28;20183;-80
2022/10/21 06:59:17;;;;;;;29.48;17.73;;;13.20;99.90;;;;;;4978004;28;20041;-76
2022/10/21 07:01:44;;;;;;;30.05;17.63;;;13.30;99.90;;;;;;4989135;28;20126;-79
2022/10/21 07:04:26;;;;;;;24.58;15.45;;;13.30;99.90;;;;;;4982086;28;20054;-78
2022/10/21 07:06:53;;;;;;;24.25;16.23;;;13.30;99.90;;;;;;4990925;28;20113;-79
2022/10/21 07:09:20;;;;;;;27.13;15.88;;;13.40;99.90;;;;;;5002154;28;20100;-78
2022/10/21 07:11:46;;;;;;;27.73;16.50;;;13.40;99.90;;;;;;4987672;28;20050;-78
2022/10/21 07:14:13;;;;;;;28.63;17.23;;;13.50;99.90;;;;;;4990548;28;20052;-78
2022/10/21 07:16:40;;;;;;;29.67;17.08;;;13.50;99.90;;;;;;4991406;28;20074;-78
2022/10/21 07:19:09;;;;;;;28.13;16.40;;;13.70;99.90;;;;;;4989995;28;20411;-78
2022/10/21 07:21:36;;;;;;;29.17;16.10;;;13.60;99.90;;;;;;4967123;28;20121;-78
2022/10/21 07:24:03;;;;;;;24.00;16.33;;;13.70;99.90;;;;;;4986543;28;20033;-77
2022/10/21 07:26:31;;;;;;;26.08;16.15;;;13.70;99.90;;;;;;4977941;28;20594;-78
2022/10/21 07:28:59;;;;;;;25.90;14.07;;;13.80;99.90;;;;;;4961455;28;20056;-78
2022/10/21 07:31:29;;;;;;;21.83;13.70;;;13.80;99.90;;;;;;4985074;28;20034;-79
2022/10/21 07:33:56;;;;;;;19.02;13.73;;;13.80;99.90;;;;;;4986954;28;20136;-79
2022/10/21 07:36:25;;;;;;;22.77;14.85;;;13.90;99.90;;;;;;4980542;28;20061;-78
2022/10/21 07:38:54;;;;;;;30.65;14.95;;;13.90;99.90;;;;;;4987468;28;20108;-79
2022/10/21 07:41:24;;;;;;;27.65;15.93;;;14.10;99.90;;;;;;4980379;28;20436;-76
2022/10/21 07:43:52;;;;;;;27.65;16.67;;;14.00;99.90;;;;;;4987741;28;20056;-78
2022/10/21 07:46:20;;;;;;;18.75;13.75;;;14.00;99.90;;;;;;4986257;28;20038;-80
2022/10/21 07:48:47;;;;;;;26.08;14.80;;;14.20;99.90;;;;;;4990305;28;20232;-79
2022/10/21 07:51:18;;;;;;;16.98;13.45;;;14.20;99.90;;;;;;4972777;28;20050;-78
2022/10/21 07:53:47;;;;;;;24.52;15.10;;;14.30;99.90;;;;;;4985149;28;20049;-78
2022/10/21 07:56:17;;;;;;;21.70;15.90;;;14.20;99.90;;;;;;4988186;28;20046;-78
2022/10/21 07:58:45;;;;;;;21.33;14.25;;;14.30;99.90;;;;;;4982579;28;20419;-78
2022/10/21 08:01:14;;;;;;;19.30;14.05;;;14.40;99.90;;;;;;4972595;28;20340;-76
2022/10/21 08:03:40;;;;;;;18.35;14.35;;;14.30;99.90;;;;;;4983067;28;20054;-79
2022/10/21 08:06:08;;;;;;;23.35;15.70;;;14.30;99.90;;;;;;4978930;28;20050;-78
2022/10/21 08:08:36;;;;;;;20.83;14.90;;;14.40;99.90;;;;;;4962135;28;20460;-79
2022/10/21 08:11:03;;;;;;;25.45;15.82;;;14.40;99.90;;;;;;4974667;28;20423;-78
2022/10/21 08:13:31;;;;;;;22.95;16.10;;;14.50;99.90;;;;;;4966435;28;20140;-78
2022/10/21 08:15:58;;;;;;;20.98;15.13;;;14.50;99.90;;;;;;4962760;28;20042;-79
2022/10/21 08:18:25;;;;;;;20.60;15.18;;;14.50;99.90;;;;;;4985529;28;20051;-78
2022/10/21 08:20:51;;;;;;;23.63;16.10;;;14.50;99.90;;;;;;4986846;28;20083;-78
2022/10/21 08:23:21;;;;;;;25.92;16.63;;;14.50;99.90;;;;;;4986564;28;20046;-76
2022/10/21 08:25:54;;;;;;;24.92;15.70;;;14.50;99.90;;;;;;4989744;28;20052;-79
2022/10/21 08:28:22;;;;;;;25.30;15.82;;;14.60;99.90;;;;;;4990677;28;20046;-78
2022/10/21 08:30:49;;;;;;;25.27;15.65;;;14.70;99.90;;;;;;4983148;28;20268;-78
2022/10/21 08:33:16;;;;;;;23.75;15.88;;;14.70;99.90;;;;;;4983432;28;20227;-77
2022/10/21 08:35:44;;;;;;;23.73;16.25;;;14.60;99.90;;;;;;4989034;28;20042;-78
2022/10/21 08:38:10;;;;;;;21.02;15.82;;;14.60;99.90;;;;;;4985712;28;20053;-78
2022/10/21 08:40:43;;;;;;;23.55;14.75;;;14.60;99.90;;;;;;4987544;28;20057;-78
2022/10/21 08:43:18;;;;;;;22.25;14.73;;;14.70;99.90;;;;;;4991282;28;20042;-75
2022/10/21 08:45:57;;;;;;;;;;;14.60;99.90;;;;;;4979180;28;20043;-78
2022/10/21 08:48:37;;;;;;;22.80;14.82;;;14.60;99.90;;;;;;4984761;28;19922;-77
2022/10/21 08:51:06;;;;;;;24.30;15.93;;;14.70;99.90;;;;;;4975137;28;20052;-78
2022/10/21 08:53:40;;;;;;;29.88;16.42;;;14.80;99.90;;;;;;4985728;28;20586;-77
2022/10/21 08:56:12;;;;;;;21.55;15.70;;;14.80;99.90;;;;;;4990964;28;20046;-76
2022/10/21 08:58:49;;;;;;;22.48;15.30;;;14.80;99.90;;;;;;4998014;28;20313;-76
2022/10/21 09:01:22;;;;;;;22.42;15.50;;;14.80;99.90;;;;;;4981843;28;20189;-78
2022/10/21 09:04:26;;;;;;;18.10;15.65;;;14.80;99.90;;;;;;5002122;28;20105;-75
2022/10/21 09:07:01;;;;;;;27.73;16.98;;;14.70;99.90;;;;;;4975495;28;20056;-78
2022/10/21 09:09:45;;;;;;;21.38;16.20;;;14.80;99.90;;;;;;4988872;28;20505;-77
2022/10/21 09:12:34;;;;;;;20.20;16.70;;;14.80;99.90;;;;;;4995840;28;20169;-78
2022/10/21 09:15:22;;;;;;;17.65;15.32;;;14.80;99.90;;;;;;4990427;28;20076;-78
2022/10/21 09:18:17;;;;;;;17.60;15.68;;;14.80;99.90;;;;;;4966647;28;20425;-78
2022/10/21 09:20:59;;;;;;;18.27;16.38;;;14.90;99.90;;;;;;4963846;28;20496;-77
2022/10/21 09:24:01;;;;;;;19.60;16.20;;;14.90;99.90;;;;;;4991576;28;20049;-76
2022/10/21 09:26:40;;;;;;;23.20;15.95;;;14.90;99.90;;;;;;4970877;28;20041;-76
2022/10/21 09:29:25;;;;;;;21.55;15.70;;;14.80;99.90;;;;;;4975724;28;20049;-78
2022/10/21 09:31:58;;;;;;;21.77;15.48;;;14.80;99.90;;;;;;4999866;28;20049;-77
2022/10/21 09:34:48;;;;;;;20.52;15.10;;;14.90;99.90;;;;;;4987040;28;20045;-77
2022/10/21 09:37:49;;;;;;;18.23;15.13;;;14.80;99.90;;;;;;4990931;28;20156;-76
2022/10/21 09:40:22;;;;;;;22.10;16.20;;;14.80;99.90;;;;;;4946306;28;20039;-77
2022/10/21 09:42:54;;;;;;;20.85;18.40;;;14.80;99.90;;;;;;4972835;28;20054;-77
2022/10/21 09:45:30;;;;;;;21.45;16.65;;;14.80;99.90;;;;;;4981373;28;20058;-76
2022/10/21 09:48:17;;;;;;;22.55;18.20;;;14.80;99.90;;;;;;4982312;28;20671;-76
2022/10/21 09:50:47;;;;;;;24.60;17.88;;;14.90;99.90;;;;;;4991759;28;20471;-78
2022/10/21 09:53:21;;;;;;;23.92;17.15;;;14.90;99.90;;;;;;4985459;28;20069;-77
2022/10/21 09:55:58;;;;;;;23.75;17.73;;;14.90;99.90;;;;;;4979544;28;20133;-76
2022/10/21 09:58:27;;;;;;;24.73;18.98;;;14.80;99.90;;;;;;4979856;28;20053;-77
2022/10/21 10:00:57;;;;;;;22.75;16.73;;;14.80;99.90;;;;;;4983603;28;20523;-77
2022/10/21 10:03:31;;;;;;;23.98;18.15;;;14.80;99.90;;;;;;4981461;28;20065;-76
2022/10/21 10:05:59;;;;;;;23.92;18.10;;;14.90;99.90;;;;;;4983608;28;20054;-76
2022/10/21 10:08:27;;;;;;;28.27;17.55;;;15.00;99.90;;;;;;4983253;28;20042;-76
2022/10/21 10:11:17;;;;;;;27.02;17.73;;;14.90;99.90;;;;;;4984169;28;20050;-77
2022/10/21 10:13:50;;;;;;;24.38;18.25;;;15.00;99.90;;;;;;4990378;28;20451;-79
2022/10/21 10:16:28;;;;;;;25.20;19.58;;;15.00;99.90;;;;;;4974984;28;20065;-76
2022/10/21 10:19:15;;;;;;;24.55;19.77;;;15.00;99.90;;;;;;4985402;28;20061;-78
2022/10/21 10:21:44;;;;;;;22.88;18.80;;;15.10;99.90;;;;;;4978129;28;20056;-77
2022/10/21 10:24:19;;;;;;;31.35;20.45;;;15.20;99.90;;;;;;4987011;28;20511;-76
2022/10/21 10:26:47;;;;;;;31.27;20.73;;;15.20;99.90;;;;;;4981412;28;20073;-78
2022/10/21 10:29:14;;;;;;;28.50;19.67;;;15.30;99.90;;;;;;4978329;28;20671;-77
2022/10/21 10:31:51;;;;;;;21.10;18.20;;;15.20;99.90;;;;;;4982263;28;20046;-77
2022/10/21 10:34:48;;;;;;;26.15;18.63;;;15.30;99.90;;;;;;4988082;28;20052;-77
2022/10/21 10:37:18;;;;;;;25.85;19.58;;;15.30;99.90;;;;;;4994528;28;20050;-77
2022/10/21 10:39:48;;;;;;;23.45;20.25;;;15.30;99.90;;;;;;4978733;28;20181;-77
2022/10/21 10:42:22;;;;;;;30.15;20.30;;;15.30;99.90;;;;;;4996244;28;20048;-78
2022/10/21 10:44:56;;;;;;;27.38;21.45;;;15.30;99.90;;;;;;4985360;28;20436;-77
2022/10/21 10:47:41;;;;;;;28.48;20.30;;;15.30;99.90;;;;;;4979190;28;20070;-76
2022/10/21 10:50:46;;;;;;;28.02;21.20;;;15.20;99.90;;;;;;4982564;28;20045;-79
2022/10/21 10:53:32;;;;;;;33.05;19.75;;;15.20;99.90;;;;;;4977541;28;20340;-78
2022/10/21 10:56:34;;;;;;;31.95;21.13;;;15.00;99.90;;;;;;4986026;28;20054;-78
2022/10/21 10:59:33;;;;;;;33.03;20.55;;;14.90;99.90;;;;;;4943664;28;20154;-78
2022/10/21 11:02:07;;;;;;;33.60;22.13;;;14.80;99.90;;;;;;4979886;28;20096;-78
2022/10/21 11:04:36;;;;;;;42.92;22.08;;;14.80;99.90;;;;;;4983566;28;20532;-79
2022/10/21 11:07:06;;;;;;;37.15;22.60;;;14.80;99.90;;;;;;4984603;28;20042;-78
2022/10/21 11:09:33;;;;;;;41.78;23.33;;;14.80;99.90;;;;;;4991676;28;20050;-79
2022/10/21 11:12:04;;;;;;;39.17;23.15;;;14.90;99.90;;;;;;4982344;28;20127;-79
2022/10/21 11:14:31;;;;;;;46.03;25.08;;;14.90;99.90;;;;;;4987054;28;20122;-78
2022/10/21 11:17:06;;;;;;;42.00;23.50;;;14.90;99.90;;;;;;4991265;28;20054;-79
2022/10/21 11:19:47;;;;;;;53.00;25.35;;;14.90;99.90;;;;;;4985778;28;20076;-80
2022/10/21 11:22:36;;;;;;;56.33;26.90;;;14.90;99.90;;;;;;4979702;28;20058;-79
2022/10/21 11:25:06;;;;;;;49.80;24.70;;;14.90;99.90;;;;;;4982140;28;20476;-79
2022/10/21 11:27:51;;;;;;;49.00;27.30;;;14.80;99.90;;;;;;4986546;28;20046;-79
2022/10/21 11:30:21;;;;;;;51.50;25.80;;;14.80;99.90;;;;;;4982883;28;20141;-79
2022/10/21 11:33:03;;;;;;;50.15;26.13;;;14.80;99.90;;;;;;5001905;28;20100;-78
2022/10/21 11:35:56;;;;;;;47.72;25.00;;;14.80;99.90;;;;;;4981914;28;20128;-78
2022/10/21 11:38:40;;;;;;;52.35;25.67;;;14.80;99.90;;;;;;4977028;28;20042;-79
2022/10/21 11:41:21;;;;;;;53.50;26.55;;;14.80;99.90;;;;;;4975907;28;20112;-79
2022/10/21 11:44:24;;;;;;;42.38;23.25;;;14.80;99.90;;;;;;4975504;28;20499;-79
2022/10/21 11:47:07;;;;;;;52.78;23.60;;;14.80;99.90;;;;;;4979867;28;20046;-78
2022/10/21 11:49:57;;;;;;;40.10;22.55;;;14.80;99.90;;;;;;4983231;28;20205;-78
2022/10/21 11:52:44;;;;;;;43.03;22.77;;;14.80;99.90;;;;;;4974649;28;20241;-79
2022/10/21 11:55:41;;;;;;;38.10;21.10;;;14.70;99.90;;;;;;4990258;28;20491;-79
2022/10/21 11:58:17;;;;;;;42.10;22.25;;;14.70;99.90;;;;;;4985645;28;20046;-78
2022/10/21 12:01:09;;;;;;;36.25;21.30;;;14.70;99.90;;;;;;4972794;28;20327;-78
2022/10/21 12:04:11;;;;;;;40.42;21.70;;;14.60;99.90;;;;;;4987274;28;20363;-78
2022/10/21 12:07:10;;;;;;;46.05;25.40;;;14.70;99.90;;;;;;4967948;28;20052;-78
2022/10/21 12:09:52;;;;;;;46.38;25.52;;;14.70;99.90;;;;;;4986921;28;20047;-79
2022/10/21 12:12:31;;;;;;;42.80;26.73;;;14.70;99.90;;;;;;4983035;28;20046;-78
2022/10/21 12:15:02;;;;;;;46.83;26.80;;;14.70;99.90;;;;;;4986336;28;20054;-79
2022/10/21 12:17:33;;;;;;;43.40;26.90;;;14.70;99.90;;;;;;4978556;28;20044;-78
2022/10/21 12:20:05;;;;;;;46.90;26.38;;;14.80;99.90;;;;;;4987787;28;20746;-79
2022/10/21 12:22:33;;;;;;;43.63;25.45;;;14.80;99.90;;;;;;4992196;28;20040;-79
2022/10/21 12:25:11;;;;;;;46.80;26.50;;;14.70;99.90;;;;;;5005703;28;20050;-79
2022/10/21 12:27:46;;;;;;;51.08;29.20;;;14.80;99.90;;;;;;4972347;28;20492;-79
2022/10/21 12:30:19;;;;;;;;;;;14.90;99.90;;;;;;4995466;28;20149;-78
2022/10/21 12:33:13;;;;;;;35.47;23.90;;;14.90;99.90;;;;;;4991240;28;20009;-79
2022/10/21 12:35:49;;;;;;;38.55;25.17;;;15.00;99.90;;;;;;5004819;28;21880;-78
2022/10/21 12:38:22;;;;;;;44.72;29.05;;;15.10;99.90;;;;;;4989203;28;20137;-78
2022/10/21 12:41:09;;;;;;;43.58;26.58;;;15.20;99.90;;;;;;4985520;28;20471;-78
2022/10/21 12:43:37;;;;;;;42.33;25.23;;;15.20;99.90;;;;;;5003744;28;20044;-79
2022/10/21 12:46:09;;;;;;;45.22;25.92;;;15.20;99.90;;;;;;5006001;28;20042;-78
2022/10/21 12:48:48;;;;;;;36.35;22.98;;;15.10;99.90;;;;;;4985721;28;20547;-78
2022/10/21 12:51:25;;;;;;;33.70;22.83;;;15.10;99.90;;;;;;4984470;28;20049;-77
2022/10/21 12:54:02;;;;;;;34.47;22.67;;;15.20;99.90;;;;;;4983542;28;20046;-77